Time,TemperatureF,DewpointF,PressureIn,WindDirection,WindDirectionDegrees,WindSpeedMPH,WindSpeedGustMPH,Humidity,HourlyPrecipIn,Conditions,Clouds,dailyrainin,SoftwareType,DateUTC
2013-06-06 00:00:00,52.3,44.2,30.15,SE,135,0.0,0.0,74,0.00,,,0.00,WUHU21636XXSP,2013-06-06 04:00:00,
2013-06-06 00:01:00,52.3,44.2,30.15,SE,135,0.0,0.0,74,0.00,,,0.00,WUHU21636XXSP,2013-06-06 04:01:00,
2013-06-06 00:02:00,52.3,44.2,30.15,SE,135,0.0,0.0,74,0.00,,,0.00,WUHU21636XXSP,2013-06-06 04:02:00,
2013-06-06 00:07:00,52.2,44.1,30.15,SE,135,0.0,0.0,75,0.00,,,0.00,WUHU21636XXSP,2013-06-06 04:07:00,
2013-06-06 00:12:00,52.2,44.1,30.15,SE,135,0.0,0.0,76,0.00,,,0.00,WUHU21636XXSP,2013-06-06 04:12:00,
2013-06-06 00:17:00,52.2,44.1,30.15,SE,135,0.0,0.0,77,0.00,,,0.00,WUHU21636XXSP,2013-06-06 04:17:00,
2013-06-06 00:22:00,52.0,44.2,30.15,SE,135,0.0,0.0,76,0.00,,,0.00,WUHU21636XXSP,2013-06-06 04:22:00,
2013-06-06 00:27:00,52.0,44.2,30.14,SE,135,0.0,0.0,77,0.00,,,0.00,WUHU21636XXSP,2013-06-06 04:27:00,
2013-06-06 00:32:00,52.0,44.2,30.14,SE,135,0.0,0.0,74,0.00,,,0.00,WUHU21636XXSP,2013-06-06 04:32:00,
2013-06-06 00:37:00,52.0,44.2,30.14,SE,135,0.0,0.0,73,0.00,,,0.00,WUHU21636XXSP,2013-06-06 04:37:00,
2013-06-06 00:42:00,52.0,44.2,30.14,SE,135,0.0,0.0,73,0.00,,,0.00,WUHU21636XXSP,2013-06-06 04:42:00,
2013-06-06 00:47:00,52.0,44.2,30.14,SE,135,0.0,0.0,72,0.00,,,0.00,WUHU21636XXSP,2013-06-06 04:47:00,
2013-06-06 00:52:00,52.0,44.2,30.14,SE,135,0.0,2.0,73,0.00,,,0.00,WUHU21636XXSP,2013-06-06 04:52:00,
2013-06-06 00:57:00,52.0,44.2,30.14,ESE,112,0.0,2.0,73,0.00,,,0.00,WUHU21636XXSP,2013-06-06 04:57:00,
2013-06-06 01:02:00,52.0,44.2,30.14,SE,135,0.0,0.0,73,0.00,,,0.00,WUHU21636XXSP,2013-06-06 05:02:00,
2013-06-06 01:07:00,52.0,44.2,30.14,SE,135,0.0,0.0,73,0.00,,,0.00,WUHU21636XXSP,2013-06-06 05:07:00,
2013-06-06 01:12:00,52.0,44.2,30.14,NE,45,0.0,0.0,73,0.00,,,0.00,WUHU21636XXSP,2013-06-06 05:12:00,
2013-06-06 01:17:00,52.0,43.5,30.13,ESE,112,3.8,3.8,73,0.00,,,0.00,WUHU21636XXSP,2013-06-06 05:17:00,
2013-06-06 01:22:00,51.6,42.8,30.13,SE,135,0.0,3.8,72,0.00,,,0.00,WUHU21636XXSP,2013-06-06 05:22:00,
2013-06-06 01:27:00,51.8,43.3,30.13,SE,135,0.0,0.0,73,0.00,,,0.00,WUHU21636XXSP,2013-06-06 05:27:00,
2013-06-06 01:32:00,52.0,43.2,30.13,SE,135,0.0,0.0,72,0.00,,,0.00,WUHU21636XXSP,2013-06-06 05:32:00,
2013-06-06 01:37:00,52.0,43.2,30.13,ESE,112,0.0,3.8,73,0.00,,,0.00,WUHU21636XXSP,2013-06-06 05:37:00,
2013-06-06 01:42:00,52.0,43.2,30.13,ENE,67,0.4,3.8,73,0.00,,,0.00,WUHU21636XXSP,2013-06-06 05:42:00,
2013-06-06 01:47:00,52.0,43.2,30.13,SE,135,1.1,14.0,72,0.00,,,0.00,WUHU21636XXSP,2013-06-06 05:47:00,
2013-06-06 01:52:00,52.0,43.2,30.13,SE,135,2.9,14.0,72,0.00,,,0.00,WUHU21636XXSP,2013-06-06 05:52:00,
2013-06-06 01:57:00,52.0,43.2,30.13,SE,135,3.1,3.1,72,0.00,,,0.00,WUHU21636XXSP,2013-06-06 05:57:00,
2013-06-06 02:02:00,52.0,42.8,30.13,SE,135,3.5,7.3,71,0.00,,,0.00,WUHU21636XXSP,2013-06-06 06:02:00,
2013-06-06 02:07:00,52.0,42.8,30.13,SE,135,3.3,7.3,71,0.00,,,0.00,WUHU21636XXSP,2013-06-06 06:07:00,
2013-06-06 02:12:00,52.0,42.8,30.13,SE,135,3.3,5.1,71,0.00,,,0.00,WUHU21636XXSP,2013-06-06 06:12:00,
2013-06-06 02:17:00,52.0,42.8,30.13,SE,135,3.1,5.1,70,0.00,,,0.00,WUHU21636XXSP,2013-06-06 06:17:00,
2013-06-06 02:22:00,52.0,42.4,30.13,SE,135,3.3,7.8,70,0.00,,,0.00,WUHU21636XXSP,2013-06-06 06:22:00,
2013-06-06 02:27:00,52.2,42.3,30.13,SE,135,0.0,7.8,69,0.00,,,0.00,WUHU21636XXSP,2013-06-06 06:27:00,
2013-06-06 02:32:00,52.2,42.6,30.13,ESE,112,4.0,4.2,70,0.00,,,0.00,WUHU21636XXSP,2013-06-06 06:32:00,
2013-06-06 02:37:00,52.2,42.3,30.12,SE,135,5.3,5.3,69,0.00,,,0.00,WUHU21636XXSP,2013-06-06 06:37:00,
2013-06-06 02:42:00,52.0,42.1,30.12,SE,135,2.9,5.3,69,0.00,,,0.00,WUHU21636XXSP,2013-06-06 06:42:00,
2013-06-06 02:47:00,52.0,42.1,30.12,SE,135,2.9,5.3,69,0.00,,,0.00,WUHU21636XXSP,2013-06-06 06:47:00,
2013-06-06 02:52:00,52.0,41.7,30.12,SE,135,0.0,9.1,68,0.00,,,0.00,WUHU21636XXSP,2013-06-06 06:52:00,
2013-06-06 02:57:00,52.2,41.9,30.12,SE,135,3.5,9.1,68,0.00,,,0.00,WUHU21636XXSP,2013-06-06 06:57:00,
2013-06-06 03:02:00,52.2,41.9,30.12,SSE,157,7.1,7.6,68,0.00,,,0.00,WUHU21636XXSP,2013-06-06 07:02:00,
2013-06-06 03:07:00,52.3,42.1,30.12,SE,135,2.9,7.8,68,0.00,,,0.00,WUHU21636XXSP,2013-06-06 07:07:00,
2013-06-06 03:12:00,52.2,41.4,30.12,SE,135,6.7,14.3,67,0.00,,,0.00,WUHU21636XXSP,2013-06-06 07:12:00,
2013-06-06 03:17:00,52.2,41.4,30.12,SE,135,2.9,14.3,67,0.00,,,0.00,WUHU21636XXSP,2013-06-06 07:17:00,
2013-06-06 03:22:00,52.2,41.4,30.12,SE,135,3.1,8.7,67,0.00,,,0.00,WUHU21636XXSP,2013-06-06 07:22:00,
2013-06-06 03:27:00,52.2,41.4,30.12,SE,135,3.5,6.9,67,0.00,,,0.00,WUHU21636XXSP,2013-06-06 07:27:00,
2013-06-06 03:32:00,52.2,41.4,30.11,SE,135,5.3,5.3,67,0.00,,,0.00,WUHU21636XXSP,2013-06-06 07:32:00,
2013-06-06 03:37:00,52.2,41.0,30.11,SE,135,2.4,5.3,66,0.00,,,0.00,WUHU21636XXSP,2013-06-06 07:37:00,
2013-06-06 03:42:00,52.0,40.8,30.11,SE,135,3.5,10.0,66,0.00,,,0.00,WUHU21636XXSP,2013-06-06 07:42:00,
2013-06-06 03:47:00,52.0,40.8,30.11,SE,135,2.0,12.0,66,0.00,,,0.00,WUHU21636XXSP,2013-06-06 07:47:00,
2013-06-06 03:52:00,52.0,40.5,30.11,SE,135,4.6,12.0,65,0.00,,,0.00,WUHU21636XXSP,2013-06-06 07:52:00,
2013-06-06 03:57:00,52.0,40.5,30.10,ESE,112,5.3,11.6,65,0.00,,,0.00,WUHU21636XXSP,2013-06-06 07:57:00,
2013-06-06 04:02:00,52.0,40.1,30.10,SE,135,5.3,10.9,64,0.00,,,0.00,WUHU21636XXSP,2013-06-06 08:02:00,
2013-06-06 04:07:00,52.0,39.7,30.10,SE,135,4.2,10.9,63,0.00,,,0.00,WUHU21636XXSP,2013-06-06 08:07:00,
2013-06-06 04:12:00,52.2,39.4,30.10,SE,135,2.0,6.7,62,0.00,,,0.00,WUHU21636XXSP,2013-06-06 08:12:00,
2013-06-06 04:17:00,52.3,39.6,30.10,SE,135,2.4,4.2,63,0.00,,,0.00,WUHU21636XXSP,2013-06-06 08:17:00,
2013-06-06 04:22:00,52.3,39.6,30.10,SE,135,2.2,7.1,63,0.00,,,0.00,WUHU21636XXSP,2013-06-06 08:22:00,
2013-06-06 04:27:00,52.2,39.4,30.09,SE,135,0.0,7.1,63,0.00,,,0.00,WUHU21636XXSP,2013-06-06 08:27:00,
2013-06-06 04:32:00,52.0,39.6,30.10,SE,135,0.0,3.1,65,0.00,,,0.00,WUHU21636XXSP,2013-06-06 08:32:00,
2013-06-06 04:37:00,51.6,40.5,30.09,SE,135,0.0,0.0,67,0.00,,,0.00,WUHU21636XXSP,2013-06-06 08:37:00,
2013-06-06 04:42:00,51.4,40.3,30.09,SE,135,0.0,0.0,66,0.00,,,0.00,WUHU21636XXSP,2013-06-06 08:42:00,
2013-06-06 04:47:00,51.1,40.5,30.09,SE,135,0.0,0.0,67,0.00,,,0.00,WUHU21636XXSP,2013-06-06 08:47:00,
2013-06-06 04:52:00,51.1,40.5,30.09,SE,135,2.6,2.6,67,0.00,,,0.00,WUHU21636XXSP,2013-06-06 08:52:00,
2013-06-06 04:57:00,50.9,40.3,30.09,SE,135,3.1,3.1,67,0.00,,,0.00,WUHU21636XXSP,2013-06-06 08:57:00,
2013-06-06 05:02:00,50.9,40.3,30.09,SE,135,0.0,3.1,67,0.00,,,0.00,WUHU21636XXSP,2013-06-06 09:02:00,
2013-06-06 05:07:00,50.7,40.1,30.09,SE,135,0.0,0.0,67,0.00,,,0.00,WUHU21636XXSP,2013-06-06 09:07:00,
2013-06-06 05:12:00,50.5,39.9,30.09,SE,135,0.0,0.0,67,0.00,,,0.00,WUHU21636XXSP,2013-06-06 09:12:00,
2013-06-06 05:17:00,50.5,39.9,30.09,SE,135,0.0,0.0,66,0.00,,,0.00,WUHU21636XXSP,2013-06-06 09:17:00,
2013-06-06 05:22:00,50.5,39.9,30.08,SE,135,0.0,0.0,66,0.00,,,0.00,WUHU21636XXSP,2013-06-06 09:22:00,
2013-06-06 05:27:00,50.4,39.4,30.08,SE,135,0.0,0.0,67,0.00,,,0.00,WUHU21636XXSP,2013-06-06 09:27:00,
2013-06-06 05:32:00,50.2,39.2,30.08,SE,135,0.0,0.0,67,0.00,,,0.00,WUHU21636XXSP,2013-06-06 09:32:00,
2013-06-06 05:37:00,50.0,39.0,30.08,SE,135,0.0,0.0,67,0.00,,,0.00,WUHU21636XXSP,2013-06-06 09:37:00,
2013-06-06 05:42:00,49.8,39.2,30.09,SE,135,0.0,0.0,67,0.00,,,0.00,WUHU21636XXSP,2013-06-06 09:42:00,
2013-06-06 05:47:00,49.6,38.7,30.09,ESE,112,0.0,0.0,65,0.00,,,0.00,WUHU21636XXSP,2013-06-06 09:47:00,
2013-06-06 05:52:00,49.6,38.7,30.09,SE,135,0.0,2.4,65,0.00,,,0.00,WUHU21636XXSP,2013-06-06 09:52:00,
2013-06-06 05:57:00,49.6,38.7,30.09,SE,135,0.0,2.4,65,0.00,,,0.00,WUHU21636XXSP,2013-06-06 09:57:00,
2013-06-06 06:02:00,49.8,37.9,30.09,SE,135,2.2,2.2,64,0.00,,,0.00,WUHU21636XXSP,2013-06-06 10:02:00,
2013-06-06 06:07:00,49.8,37.9,30.09,SE,135,3.3,3.3,64,0.00,,,0.00,WUHU21636XXSP,2013-06-06 10:07:00,
2013-06-06 06:12:00,50.0,38.1,30.08,SE,135,1.1,3.3,64,0.00,,,0.00,WUHU21636XXSP,2013-06-06 10:12:00,
2013-06-06 06:17:00,50.2,37.9,30.08,SE,135,1.5,3.3,63,0.00,,,0.00,WUHU21636XXSP,2013-06-06 10:17:00,
2013-06-06 06:22:00,50.2,37.9,30.08,SE,135,0.0,3.1,63,0.00,,,0.00,WUHU21636XXSP,2013-06-06 10:22:00,
2013-06-06 06:27:00,50.0,37.8,30.08,SE,135,0.0,1.5,64,0.00,,,0.00,WUHU21636XXSP,2013-06-06 10:27:00,
2013-06-06 06:32:00,49.8,38.5,30.09,SE,135,0.0,0.0,65,0.00,,,0.00,WUHU21636XXSP,2013-06-06 10:32:00,
2013-06-06 06:37:00,49.8,38.5,30.09,SE,135,0.0,0.0,67,0.00,,,0.00,WUHU21636XXSP,2013-06-06 10:37:00,
2013-06-06 06:42:00,49.6,39.0,30.08,SE,135,0.0,0.0,67,0.00,,,0.00,WUHU21636XXSP,2013-06-06 10:42:00,
2013-06-06 06:47:00,49.8,39.6,30.09,SE,135,0.0,0.0,68,0.00,,,0.00,WUHU21636XXSP,2013-06-06 10:47:00,
2013-06-06 06:52:00,50.0,41.2,30.09,SE,135,0.0,0.0,72,0.00,,,0.00,WUHU21636XXSP,2013-06-06 10:52:00,
2013-06-06 06:57:00,50.0,41.2,30.09,SE,135,0.0,0.0,72,0.00,,,0.00,WUHU21636XXSP,2013-06-06 10:57:00,
2013-06-06 07:02:00,50.2,41.4,30.09,SE,135,0.0,0.0,72,0.00,,,0.00,WUHU21636XXSP,2013-06-06 11:02:00,
2013-06-06 07:07:00,50.2,41.4,30.09,SE,135,0.0,0.0,70,0.00,,,0.00,WUHU21636XXSP,2013-06-06 11:07:00,
2013-06-06 07:12:00,50.4,41.2,30.09,SE,135,0.0,0.0,71,0.00,,,0.00,WUHU21636XXSP,2013-06-06 11:12:00,
2013-06-06 07:17:00,50.5,41.2,30.09,SE,135,0.0,0.0,70,0.00,,,0.00,WUHU21636XXSP,2013-06-06 11:17:00,
2013-06-06 07:22:00,50.7,41.5,30.09,SE,135,0.0,0.0,72,0.00,,,0.00,WUHU21636XXSP,2013-06-06 11:22:00,
2013-06-06 07:27:00,50.7,41.5,30.09,SE,135,0.0,0.0,70,0.00,,,0.00,WUHU21636XXSP,2013-06-06 11:27:00,
2013-06-06 07:32:00,51.1,41.2,30.09,SE,135,0.0,0.0,69,0.00,,,0.00,WUHU21636XXSP,2013-06-06 11:32:00,
2013-06-06 07:37:00,51.1,41.2,30.09,SE,135,0.0,0.0,69,0.00,,,0.00,WUHU21636XXSP,2013-06-06 11:37:00,
2013-06-06 07:42:00,51.4,41.5,30.09,SE,135,2.0,2.0,69,0.00,,,0.00,WUHU21636XXSP,2013-06-06 11:42:00,
2013-06-06 07:47:00,51.4,41.5,30.09,SE,135,0.0,2.4,68,0.00,,,0.00,WUHU21636XXSP,2013-06-06 11:47:00,
2013-06-06 07:52:00,51.6,41.0,30.09,ENE,67,1.7,2.4,67,0.00,,,0.00,WUHU21636XXSP,2013-06-06 11:52:00,
2013-06-06 07:57:00,51.6,41.0,30.09,ENE,67,0.0,1.7,66,0.00,,,0.00,WUHU21636XXSP,2013-06-06 11:57:00,
2013-06-06 08:02:00,52.0,40.5,30.09,WSW,247,0.0,1.7,67,0.00,,,0.00,WUHU21636XXSP,2013-06-06 12:02:00,
2013-06-06 08:07:00,52.3,41.5,30.09,NNW,337,0.0,0.0,67,0.00,,,0.00,WUHU21636XXSP,2013-06-06 12:07:00,
2013-06-06 08:12:00,52.5,41.7,30.09,NNW,337,0.0,0.0,67,0.00,,,0.00,WUHU21636XXSP,2013-06-06 12:12:00,
2013-06-06 08:17:00,52.7,41.5,30.09,SE,135,1.5,1.5,66,0.00,,,0.00,WUHU21636XXSP,2013-06-06 12:17:00,
2013-06-06 08:22:00,52.9,41.7,30.09,SE,135,0.0,1.5,66,0.00,,,0.00,WUHU21636XXSP,2013-06-06 12:22:00,
2013-06-06 08:27:00,53.2,42.4,30.09,SE,135,0.4,1.5,66,0.00,,,0.00,WUHU21636XXSP,2013-06-06 12:27:00,
2013-06-06 08:32:00,53.4,42.3,30.09,ESE,112,0.0,0.4,66,0.00,,,0.01,WUHU21636XXSP,2013-06-06 12:32:00,
2013-06-06 08:37:00,53.8,42.1,30.08,NNW,337,0.0,1.7,65,0.00,,,0.01,WUHU21636XXSP,2013-06-06 12:37:00,
2013-06-06 08:42:00,54.0,42.3,30.08,SSW,202,0.0,1.7,65,0.00,,,0.01,WUHU21636XXSP,2013-06-06 12:42:00,
2013-06-06 08:47:00,54.1,43.0,30.08,East,90,0.0,2.0,66,0.00,,,0.01,WUHU21636XXSP,2013-06-06 12:47:00,
2013-06-06 08:52:00,54.3,42.6,30.08,ESE,112,0.0,2.0,65,0.00,,,0.01,WUHU21636XXSP,2013-06-06 12:52:00,
2013-06-06 08:57:00,54.5,43.3,30.08,SE,135,2.6,2.6,64,0.00,,,0.01,WUHU21636XXSP,2013-06-06 12:57:00,
2013-06-06 09:02:00,55.0,43.3,30.08,ESE,112,3.1,7.6,65,0.00,,,0.01,WUHU21636XXSP,2013-06-06 13:02:00,
2013-06-06 09:07:00,55.0,43.3,30.08,SE,135,0.0,7.6,65,0.00,,,0.01,WUHU21636XXSP,2013-06-06 13:07:00,
2013-06-06 09:12:00,55.2,43.5,30.08,SSE,157,3.1,3.1,66,0.00,,,0.01,WUHU21636XXSP,2013-06-06 13:12:00,
2013-06-06 09:17:00,55.6,43.5,30.08,SE,135,0.0,3.1,64,0.00,,,0.01,WUHU21636XXSP,2013-06-06 13:17:00,
2013-06-06 09:22:00,55.9,44.2,30.08,SE,135,2.6,3.1,65,0.00,,,0.01,WUHU21636XXSP,2013-06-06 13:22:00,
2013-06-06 09:27:00,56.3,44.2,30.08,ESE,112,0.0,2.6,64,0.00,,,0.01,WUHU21636XXSP,2013-06-06 13:27:00,
2013-06-06 09:32:00,56.8,44.2,30.08,SE,135,4.2,4.2,63,0.00,,,0.01,WUHU21636XXSP,2013-06-06 13:32:00,
2013-06-06 09:37:00,57.0,44.4,30.08,SE,135,0.0,4.2,63,0.00,,,0.01,WUHU21636XXSP,2013-06-06 13:37:00,
2013-06-06 09:42:00,57.7,45.1,30.08,SE,135,0.0,4.2,63,0.00,,,0.01,WUHU21636XXSP,2013-06-06 13:42:00,
2013-06-06 09:47:00,58.3,46.0,30.08,SE,135,0.0,2.9,64,0.00,,,0.01,WUHU21636XXSP,2013-06-06 13:47:00,
2013-06-06 09:52:00,58.8,45.7,30.08,NW,315,1.1,2.9,62,0.00,,,0.01,WUHU21636XXSP,2013-06-06 13:52:00,
2013-06-06 09:57:00,59.0,45.9,30.08,SE,135,0.6,7.1,61,0.00,,,0.01,WUHU21636XXSP,2013-06-06 13:57:00,
2013-06-06 10:02:00,60.4,46.9,30.08,SE,135,2.9,7.1,61,0.00,,,0.01,WUHU21636XXSP,2013-06-06 14:02:00,
2013-06-06 10:07:00,61.7,47.7,30.07,ESE,112,3.1,3.1,60,0.00,,,0.01,WUHU21636XXSP,2013-06-06 14:07:00,
2013-06-06 10:12:00,61.9,47.8,30.07,SE,135,2.6,12.5,60,0.00,,,0.01,WUHU21636XXSP,2013-06-06 14:12:00,
2013-06-06 10:17:00,62.1,48.4,30.07,SE,135,0.0,12.5,61,0.00,,,0.01,WUHU21636XXSP,2013-06-06 14:17:00,
2013-06-06 10:22:00,63.3,49.1,30.07,WNW,292,0.0,8.2,57,0.00,,,0.01,WUHU21636XXSP,2013-06-06 14:22:00,
2013-06-06 10:27:00,62.8,45.7,30.07,SSE,157,4.4,8.0,54,0.00,,,0.01,WUHU21636XXSP,2013-06-06 14:27:00,
2013-06-06 10:32:00,61.9,45.3,30.07,SE,135,3.8,10.9,55,0.00,,,0.01,WUHU21636XXSP,2013-06-06 14:32:00,
2013-06-06 10:37:00,62.2,47.1,30.07,SE,135,2.9,10.9,58,0.00,,,0.01,WUHU21636XXSP,2013-06-06 14:37:00,
2013-06-06 10:42:00,62.8,46.8,30.06,ESE,112,3.8,8.7,56,0.00,,,0.01,WUHU21636XXSP,2013-06-06 14:42:00,
2013-06-06 10:47:00,64.0,47.3,30.06,NW,315,0.0,7.3,55,0.00,,,0.01,WUHU21636XXSP,2013-06-06 14:47:00,
2013-06-06 10:52:00,64.2,47.5,30.06,SE,135,2.0,6.7,55,0.00,,,0.01,WUHU21636XXSP,2013-06-06 14:52:00,
2013-06-06 10:57:00,64.6,46.4,30.06,ESE,112,3.8,8.5,52,0.00,,,0.01,WUHU21636XXSP,2013-06-06 14:57:00,
2013-06-06 11:02:00,64.6,46.9,30.06,SE,135,2.6,12.0,53,0.00,,,0.01,WUHU21636XXSP,2013-06-06 15:02:00,
2013-06-06 11:07:00,65.3,47.7,30.06,ESE,112,0.0,12.0,53,0.00,,,0.01,WUHU21636XXSP,2013-06-06 15:07:00,
2013-06-06 11:12:00,66.0,47.8,30.06,ESE,112,2.0,2.0,52,0.00,,,0.01,WUHU21636XXSP,2013-06-06 15:12:00,
2013-06-06 11:17:00,66.0,47.8,30.05,South,180,0.8,2.0,50,0.00,,,0.01,WUHU21636XXSP,2013-06-06 15:17:00,
2013-06-06 11:22:00,66.4,47.1,30.06,East,90,3.8,15.2,50,0.00,,,0.01,WUHU21636XXSP,2013-06-06 15:22:00,
2013-06-06 11:27:00,66.0,46.9,30.06,SSE,157,6.0,19.4,50,0.00,,,0.01,WUHU21636XXSP,2013-06-06 15:27:00,
2013-06-06 11:32:00,65.5,46.4,30.05,SE,135,5.1,19.4,50,0.00,,,0.01,WUHU21636XXSP,2013-06-06 15:32:00,
2013-06-06 11:37:00,65.8,45.5,30.05,SSE,157,6.4,15.6,48,0.00,,,0.01,WUHU21636XXSP,2013-06-06 15:37:00,
2013-06-06 11:42:00,66.2,45.9,30.05,SE,135,0.2,15.6,48,0.00,,,0.01,WUHU21636XXSP,2013-06-06 15:42:00,
2013-06-06 11:47:00,66.6,45.5,30.05,SE,135,0.2,14.5,47,0.00,,,0.01,WUHU21636XXSP,2013-06-06 15:47:00,
2013-06-06 11:52:00,67.1,46.6,30.05,ENE,67,3.8,13.6,48,0.00,,,0.01,WUHU21636XXSP,2013-06-06 15:52:00,
2013-06-06 11:57:00,67.8,46.0,30.05,ENE,67,3.3,3.8,44,0.00,,,0.01,WUHU21636XXSP,2013-06-06 15:57:00,
2013-06-06 12:02:00,67.6,45.3,30.05,SE,135,5.8,10.5,45,0.00,,,0.01,WUHU21636XXSP,2013-06-06 16:02:00,
2013-06-06 12:07:00,66.9,46.6,30.05,SE,135,2.0,10.9,48,0.00,,,0.01,WUHU21636XXSP,2013-06-06 16:07:00,
2013-06-06 12:12:00,67.1,45.5,30.05,NE,45,1.3,10.9,46,0.00,,,0.01,WUHU21636XXSP,2013-06-06 16:12:00,
2013-06-06 12:17:00,66.4,44.2,30.05,SE,135,7.1,10.7,45,0.00,,,0.01,WUHU21636XXSP,2013-06-06 16:17:00,
2013-06-06 12:22:00,66.4,43.7,30.06,WSW,247,1.5,23.7,46,0.00,,,0.01,WUHU21636XXSP,2013-06-06 16:22:00,
2013-06-06 12:27:00,66.9,47.1,30.05,SE,135,3.3,23.7,49,0.00,,,0.01,WUHU21636XXSP,2013-06-06 16:27:00,
2013-06-06 12:32:00,66.6,42.6,30.05,SE,135,5.5,12.3,42,0.00,,,0.01,WUHU21636XXSP,2013-06-06 16:32:00,
2013-06-06 12:37:00,66.9,44.8,30.05,SE,135,0.6,12.3,45,0.00,,,0.01,WUHU21636XXSP,2013-06-06 16:37:00,
2013-06-06 12:42:00,68.2,44.6,30.05,SE,135,5.1,10.0,43,0.00,,,0.01,WUHU21636XXSP,2013-06-06 16:42:00,
2013-06-06 12:47:00,68.2,45.9,30.05,SE,135,2.2,11.8,45,0.00,,,0.01,WUHU21636XXSP,2013-06-06 16:47:00,
2013-06-06 12:52:00,67.6,46.0,30.05,SE,135,5.1,11.8,46,0.00,,,0.01,WUHU21636XXSP,2013-06-06 16:52:00,
2013-06-06 12:57:00,67.6,46.6,30.05,ESE,112,0.0,5.3,47,0.00,,,0.01,WUHU21636XXSP,2013-06-06 16:57:00,
2013-06-06 13:02:00,67.6,45.3,30.05,SE,135,3.8,13.6,45,0.00,,,0.01,WUHU21636XXSP,2013-06-06 17:02:00,
2013-06-06 13:07:00,66.4,45.5,30.04,ESE,112,4.4,17.6,47,0.00,,,0.01,WUHU21636XXSP,2013-06-06 17:07:00,
2013-06-06 13:12:00,66.4,44.8,30.04,SE,135,1.5,22.0,47,0.00,,,0.01,WUHU21636XXSP,2013-06-06 17:12:00,
2013-06-06 13:17:00,66.6,45.0,30.05,East,90,3.0,22.0,46,0.00,,,0.01,WUHU21636XXSP,2013-06-06 17:17:00,
2013-06-06 13:22:00,67.1,45.5,30.04,SSE,157,5.8,31.9,46,0.00,,,0.01,WUHU21636XXSP,2013-06-06 17:22:00,
2013-06-06 13:27:00,67.1,44.2,30.05,SE,135,4.0,31.9,44,0.00,,,0.01,WUHU21636XXSP,2013-06-06 17:27:00,
2013-06-06 13:32:00,67.6,47.1,30.05,SE,135,0.0,11.6,48,0.00,,,0.01,WUHU21636XXSP,2013-06-06 17:32:00,
2013-06-06 13:37:00,68.2,47.7,30.04,East,90,0.0,11.6,48,0.00,,,0.01,WUHU21636XXSP,2013-06-06 17:37:00,
2013-06-06 13:42:00,68.7,48.7,30.05,SSE,157,2.4,6.9,47,0.00,,,0.01,WUHU21636XXSP,2013-06-06 17:42:00,
2013-06-06 13:47:00,68.9,46.6,30.04,SSE,157,0.0,6.9,45,0.00,,,0.01,WUHU21636XXSP,2013-06-06 17:47:00,
2013-06-06 13:52:00,68.9,47.1,30.04,SE,135,0.0,11.6,42,0.00,,,0.01,WUHU21636XXSP,2013-06-06 17:52:00,
2013-06-06 13:57:00,69.1,46.6,30.04,SE,135,2.0,11.6,47,0.00,,,0.01,WUHU21636XXSP,2013-06-06 17:57:00,
2013-06-06 14:02:00,69.6,52.2,30.04,East,90,0.0,11.6,46,0.00,,,0.01,WUHU21636XXSP,2013-06-06 18:02:00,
2013-06-06 14:07:00,69.6,46.6,30.04,SSE,157,7.6,11.8,44,0.00,,,0.01,WUHU21636XXSP,2013-06-06 18:07:00,
2013-06-06 14:12:00,69.1,46.0,30.04,SE,135,4.4,12.0,45,0.00,,,0.01,WUHU21636XXSP,2013-06-06 18:12:00,
2013-06-06 14:17:00,68.5,47.3,30.04,SE,135,8.0,15.2,47,0.00,,,0.01,WUHU21636XXSP,2013-06-06 18:17:00,
2013-06-06 14:22:00,69.3,48.0,30.04,East,90,4.4,15.2,47,0.00,,,0.01,WUHU21636XXSP,2013-06-06 18:22:00,
2013-06-06 14:27:00,69.4,46.9,30.04,SE,135,7.1,13.1,45,0.00,,,0.01,WUHU21636XXSP,2013-06-06 18:27:00,
2013-06-06 14:32:00,69.8,48.9,30.03,East,90,7.8,13.1,44,0.00,,,0.01,WUHU21636XXSP,2013-06-06 18:32:00,
2013-06-06 14:37:00,69.6,47.7,30.03,SE,135,3.8,13.1,46,0.00,,,0.01,WUHU21636XXSP,2013-06-06 18:37:00,
2013-06-06 14:42:00,69.6,47.7,30.03,SE,135,1.1,13.1,46,0.00,,,0.01,WUHU21636XXSP,2013-06-06 18:42:00,
2013-06-06 14:47:00,68.9,47.1,30.03,ESE,112,8.9,12.7,46,0.00,,,0.01,WUHU21636XXSP,2013-06-06 18:47:00,
2013-06-06 14:52:00,69.4,47.7,30.03,SSE,157,8.2,12.7,50,0.00,,,0.01,WUHU21636XXSP,2013-06-06 18:52:00,
2013-06-06 14:57:00,70.3,50.2,30.03,SSW,202,1.3,14.3,49,0.00,,,0.01,WUHU21636XXSP,2013-06-06 18:57:00,
2013-06-06 15:02:00,70.3,47.1,30.03,SSE,157,0.0,14.3,44,0.00,,,0.01,WUHU21636XXSP,2013-06-06 19:02:00,
2013-06-06 15:07:00,71.2,48.0,30.03,SE,135,2.0,2.0,44,0.00,,,0.01,WUHU21636XXSP,2013-06-06 19:07:00,
2013-06-06 15:12:00,70.0,48.7,30.03,SE,135,2.9,5.3,47,0.00,,,0.01,WUHU21636XXSP,2013-06-06 19:12:00,
2013-06-06 15:17:00,69.4,47.7,30.03,ESE,112,2.2,7.6,46,0.00,,,0.01,WUHU21636XXSP,2013-06-06 19:17:00,
2013-06-06 15:22:00,69.1,47.3,30.02,SE,135,0.0,7.6,48,0.00,,,0.01,WUHU21636XXSP,2013-06-06 19:22:00,
2013-06-06 15:27:00,69.4,48.2,30.02,SSE,157,0.0,2.2,47,0.00,,,0.01,WUHU21636XXSP,2013-06-06 19:27:00,
2013-06-06 15:32:00,70.0,48.7,30.02,ESE,112,0.0,1.1,47,0.00,,,0.01,WUHU21636XXSP,2013-06-06 19:32:00,
2013-06-06 15:35:00,69.6,47.1,30.02,SE,135,2.6,2.6,45,0.00,,,0.01,WUHU21636XXSP,2013-06-06 19:35:00,
2013-06-06 15:39:00,69.1,47.8,30.02,SE,135,0.8,14.5,47,0.00,,,0.01,WUHU21636XXSP,2013-06-06 19:39:00,
2013-06-06 15:44:00,69.4,47.7,30.02,SE,135,2.0,14.5,46,0.00,,,0.01,WUHU21636XXSP,2013-06-06 19:44:00,
2013-06-06 15:49:00,70.7,47.5,30.02,SE,135,7.1,11.1,46,0.00,,,0.01,WUHU21636XXSP,2013-06-06 19:49:00,
2013-06-06 15:54:00,70.9,46.6,30.02,SE,135,6.7,11.1,42,0.00,,,0.01,WUHU21636XXSP,2013-06-06 19:54:00,
2013-06-06 15:59:00,71.4,46.9,30.02,SE,135,4.4,10.9,42,0.00,,,0.01,WUHU21636XXSP,2013-06-06 19:59:00,
2013-06-06 16:04:00,71.2,47.5,30.02,SSE,157,2.4,4.4,43,0.00,,,0.01,WUHU21636XXSP,2013-06-06 20:04:00,
2013-06-06 16:09:00,70.5,47.3,30.02,SE,135,3.3,4.4,44,0.00,,,0.01,WUHU21636XXSP,2013-06-06 20:09:00,
2013-06-06 16:14:00,70.2,46.4,30.02,SE,135,2.4,10.9,42,0.00,,,0.01,WUHU21636XXSP,2013-06-06 20:14:00,
2013-06-06 16:19:00,69.6,44.8,30.01,SE,135,2.2,19.9,41,0.00,,,0.01,WUHU21636XXSP,2013-06-06 20:19:00,
2013-06-06 16:24:00,70.0,46.9,30.02,SE,135,0.0,19.9,44,0.00,,,0.01,WUHU21636XXSP,2013-06-06 20:24:00,
2013-06-06 16:29:00,70.5,48.0,30.01,SE,135,0.0,2.2,45,0.00,,,0.01,WUHU21636XXSP,2013-06-06 20:29:00,
2013-06-06 16:34:00,71.1,47.3,30.01,ENE,67,0.0,3.3,43,0.00,,,0.01,WUHU21636XXSP,2013-06-06 20:34:00,
2013-06-06 16:39:00,70.5,46.6,30.01,NE,45,3.8,7.6,43,0.00,,,0.01,WUHU21636XXSP,2013-06-06 20:39:00,
2013-06-06 16:44:00,70.2,44.6,30.01,SE,135,5.5,7.6,44,0.00,,,0.01,WUHU21636XXSP,2013-06-06 20:44:00,
2013-06-06 16:49:00,70.3,44.1,30.01,ESE,112,0.0,7.1,39,0.00,,,0.01,WUHU21636XXSP,2013-06-06 20:49:00,
2013-06-06 16:54:00,70.9,47.1,30.01,ESE,112,0.0,5.5,43,0.00,,,0.01,WUHU21636XXSP,2013-06-06 20:54:00,
2013-06-06 16:59:00,70.7,45.1,30.01,SE,135,4.4,12.3,40,0.00,,,0.01,WUHU21636XXSP,2013-06-06 20:59:00,
2013-06-06 17:04:00,70.3,44.8,30.01,SSW,202,0.0,12.3,40,0.00,,,0.01,WUHU21636XXSP,2013-06-06 21:04:00,
2013-06-06 17:09:00,70.2,44.6,30.01,NW,315,3.5,11.6,40,0.00,,,0.01,WUHU21636XXSP,2013-06-06 21:09:00,
2013-06-06 17:14:00,69.1,43.7,30.01,East,90,0.2,6.4,40,0.00,,,0.01,WUHU21636XXSP,2013-06-06 21:14:00,
2013-06-06 17:19:00,69.3,43.5,30.01,SE,135,11.8,12.0,40,0.00,,,0.01,WUHU21636XXSP,2013-06-06 21:19:00,
2013-06-06 17:24:00,68.5,43.2,30.01,SE,135,0.0,14.0,44,0.00,,,0.01,WUHU21636XXSP,2013-06-06 21:24:00,
2013-06-06 17:29:00,69.1,45.5,30.01,SE,135,0.6,14.0,43,0.00,,,0.01,WUHU21636XXSP,2013-06-06 21:29:00,
2013-06-06 17:34:00,69.1,45.5,30.02,NNW,337,0.0,2.6,40,0.00,,,0.01,WUHU21636XXSP,2013-06-06 21:34:00,
2013-06-06 17:39:00,68.7,43.3,30.02,SSW,202,0.0,4.4,43,0.00,,,0.01,WUHU21636XXSP,2013-06-06 21:39:00,
2013-06-06 17:44:00,68.7,44.6,30.02,West,270,0.0,4.4,42,0.00,,,0.01,WUHU21636XXSP,2013-06-06 21:44:00,
2013-06-06 17:49:00,68.0,43.0,30.02,SSE,157,2.2,2.2,40,0.00,,,0.01,WUHU21636XXSP,2013-06-06 21:49:00,
2013-06-06 17:54:00,68.4,43.0,30.02,ESE,112,1.7,2.2,43,0.00,,,0.01,WUHU21636XXSP,2013-06-06 21:54:00,
2013-06-06 17:59:00,68.5,44.4,30.02,SSW,202,1.1,2.2,41,0.00,,,0.01,WUHU21636XXSP,2013-06-06 21:59:00,
2013-06-06 18:04:00,67.8,41.9,30.02,SSE,157,0.0,5.1,42,0.00,,,0.01,WUHU21636XXSP,2013-06-06 22:04:00,
2013-06-06 18:09:00,67.8,41.9,30.02,SSE,157,1.5,5.1,39,0.00,,,0.01,WUHU21636XXSP,2013-06-06 22:09:00,
2013-06-06 18:14:00,67.6,43.0,30.02,NE,45,0.8,2.6,39,0.00,,,0.01,WUHU21636XXSP,2013-06-06 22:14:00,
2013-06-06 18:19:00,67.8,41.9,30.02,SSE,157,0.6,1.5,39,0.00,,,0.01,WUHU21636XXSP,2013-06-06 22:19:00,
2013-06-06 18:24:00,68.2,43.5,30.01,NW,315,0.0,4.0,41,0.00,,,0.01,WUHU21636XXSP,2013-06-06 22:24:00,
2013-06-06 18:29:00,68.7,41.9,30.01,NW,315,0.8,4.0,38,0.00,,,0.01,WUHU21636XXSP,2013-06-06 22:29:00,
2013-06-06 18:34:00,68.7,44.6,30.02,SE,135,0.0,4.0,42,0.00,,,0.01,WUHU21636XXSP,2013-06-06 22:34:00,
2013-06-06 18:39:00,67.6,43.5,30.02,ENE,67,0.0,7.6,42,0.00,,,0.01,WUHU21636XXSP,2013-06-06 22:39:00,
2013-06-06 18:44:00,66.9,42.3,30.02,SE,135,0.0,7.6,41,0.00,,,0.01,WUHU21636XXSP,2013-06-06 22:44:00,
2013-06-06 18:49:00,66.0,41.5,30.02,West,270,0.0,1.7,41,0.00,,,0.01,WUHU21636XXSP,2013-06-06 22:49:00,
2013-06-06 18:54:00,65.5,42.3,30.02,South,180,2.4,2.9,43,0.00,,,0.01,WUHU21636XXSP,2013-06-06 22:54:00,
2013-06-06 18:59:00,65.3,42.1,30.02,NNE,22,0.0,2.9,44,0.00,,,0.01,WUHU21636XXSP,2013-06-06 22:59:00,
2013-06-06 19:04:00,65.1,41.9,30.02,SE,135,5.5,9.3,45,0.00,,,0.01,WUHU21636XXSP,2013-06-06 23:04:00,
2013-06-06 19:09:00,65.1,42.4,30.02,SSW,202,0.0,10.5,45,0.00,,,0.01,WUHU21636XXSP,2013-06-06 23:09:00,
2013-06-06 19:14:00,64.9,42.8,30.02,SSE,157,0.0,10.5,45,0.00,,,0.01,WUHU21636XXSP,2013-06-06 23:14:00,
2013-06-06 19:19:00,65.1,43.7,30.02,SE,135,1.3,4.0,44,0.00,,,0.01,WUHU21636XXSP,2013-06-06 23:19:00,
2013-06-06 19:24:00,65.3,43.2,30.02,SE,135,0.0,2.2,45,0.00,,,0.01,WUHU21636XXSP,2013-06-06 23:24:00,
2013-06-06 19:29:00,65.3,43.9,30.02,NNE,22,0.0,3.8,46,0.00,,,0.01,WUHU21636XXSP,2013-06-06 23:29:00,
2013-06-06 19:34:00,65.8,44.2,30.02,WNW,292,0.0,3.8,45,0.00,,,0.01,WUHU21636XXSP,2013-06-06 23:34:00,
2013-06-06 19:39:00,65.8,44.2,30.02,WNW,292,0.0,0.0,47,0.00,,,0.01,WUHU21636XXSP,2013-06-06 23:39:00,
2013-06-06 19:44:00,64.9,44.1,30.02,SSW,202,0.0,10.9,47,0.00,,,0.01,WUHU21636XXSP,2013-06-06 23:44:00,
2013-06-06 19:49:00,64.6,43.7,30.02,SSE,157,0.0,10.9,47,0.00,,,0.01,WUHU21636XXSP,2013-06-06 23:49:00,
2013-06-06 19:54:00,64.2,43.9,30.02,SSE,157,0.0,1.5,47,0.00,,,0.01,WUHU21636XXSP,2013-06-06 23:54:00,
2013-06-06 19:59:00,64.0,44.4,30.02,SSE,157,2.6,2.6,48,0.00,,,0.01,WUHU21636XXSP,2013-06-06 23:59:00,
2013-06-06 20:04:00,63.7,44.1,30.02,SE,135,0.0,2.6,49,0.00,,,0.01,WUHU21636XXSP,2013-06-07 00:04:00,
2013-06-06 20:09:00,63.3,43.7,30.02,SE,135,0.0,2.6,49,0.00,,,0.01,WUHU21636XXSP,2013-06-07 00:09:00,
2013-06-06 20:14:00,63.1,43.0,30.02,SE,135,2.6,2.6,48,0.00,,,0.01,WUHU21636XXSP,2013-06-07 00:14:00,
2013-06-06 20:19:00,63.0,43.9,30.02,SE,135,0.0,2.6,50,0.00,,,0.01,WUHU21636XXSP,2013-06-07 00:19:00,
2013-06-06 20:24:00,62.8,43.7,30.03,SSE,157,3.8,3.8,50,0.00,,,0.01,WUHU21636XXSP,2013-06-07 00:24:00,
2013-06-06 20:29:00,62.4,42.3,30.03,SSE,157,0.0,3.8,48,0.00,,,0.01,WUHU21636XXSP,2013-06-07 00:29:00,
2013-06-06 20:34:00,62.4,42.3,30.03,SE,135,2.2,3.8,49,0.00,,,0.01,WUHU21636XXSP,2013-06-07 00:34:00,
2013-06-06 20:39:00,62.2,42.8,30.03,SE,135,0.6,2.2,49,0.00,,,0.01,WUHU21636XXSP,2013-06-07 00:39:00,
2013-06-06 20:44:00,61.9,42.4,30.03,SE,135,4.2,4.2,49,0.00,,,0.01,WUHU21636XXSP,2013-06-07 00:44:00,
2013-06-06 20:49:00,61.7,43.3,30.03,ENE,67,0.0,12.3,51,0.00,,,0.01,WUHU21636XXSP,2013-06-07 00:49:00,
2013-06-06 20:54:00,61.5,43.2,30.03,SE,135,0.0,12.3,51,0.00,,,0.01,WUHU21636XXSP,2013-06-07 00:54:00,
2013-06-06 20:59:00,61.3,43.5,30.03,SE,135,0.0,3.1,51,0.00,,,0.01,WUHU21636XXSP,2013-06-07 00:59:00,
2013-06-06 21:04:00,61.3,43.5,30.03,SE,135,0.0,3.1,51,0.00,,,0.01,WUHU21636XXSP,2013-06-07 01:04:00,
2013-06-06 21:09:00,61.0,43.2,30.03,SE,135,0.0,3.1,52,0.00,,,0.01,WUHU21636XXSP,2013-06-07 01:09:00,
2013-06-06 21:14:00,60.8,43.5,30.02,SE,135,0.0,0.0,54,0.00,,,0.01,WUHU21636XXSP,2013-06-07 01:14:00,
2013-06-06 21:19:00,60.4,43.7,30.02,SE,135,0.0,0.0,53,0.00,,,0.01,WUHU21636XXSP,2013-06-07 01:19:00,
2013-06-06 21:24:00,60.4,43.7,30.02,SE,135,0.0,0.0,54,0.00,,,0.01,WUHU21636XXSP,2013-06-07 01:24:00,
2013-06-06 21:29:00,59.7,43.0,30.03,SE,135,0.0,0.0,54,0.00,,,0.01,WUHU21636XXSP,2013-06-07 01:29:00,
2013-06-06 21:34:00,59.5,42.8,30.03,SE,135,0.0,0.0,54,0.00,,,0.01,WUHU21636XXSP,2013-06-07 01:34:00,
2013-06-06 21:39:00,59.2,42.8,30.02,SE,135,0.0,0.0,54,0.00,,,0.01,WUHU21636XXSP,2013-06-07 01:39:00,
2013-06-06 21:44:00,59.0,42.8,30.02,SE,135,0.0,0.0,57,0.00,,,0.01,WUHU21636XXSP,2013-06-07 01:44:00,
2013-06-06 21:49:00,58.8,43.5,30.03,SE,135,0.0,0.0,58,0.00,,,0.01,WUHU21636XXSP,2013-06-07 01:49:00,
2013-06-06 21:54:00,58.3,43.0,30.03,SE,135,0.0,0.0,57,0.00,,,0.01,WUHU21636XXSP,2013-06-07 01:54:00,
2013-06-06 21:59:00,58.3,43.0,30.03,SE,135,0.0,12.3,58,0.00,,,0.01,WUHU21636XXSP,2013-06-07 01:59:00,
2013-06-06 22:04:00,57.9,43.7,30.03,SE,135,0.0,12.3,59,0.00,,,0.01,WUHU21636XXSP,2013-06-07 02:04:00,
2013-06-06 22:09:00,57.7,43.9,30.03,SE,135,0.0,0.0,60,0.00,,,0.01,WUHU21636XXSP,2013-06-07 02:09:00,
2013-06-06 22:14:00,57.6,44.2,30.03,SE,135,0.0,0.0,61,0.00,,,0.01,WUHU21636XXSP,2013-06-07 02:14:00,
2013-06-06 22:19:00,57.4,44.1,30.03,SE,135,0.0,0.0,61,0.00,,,0.01,WUHU21636XXSP,2013-06-07 02:19:00,
2013-06-06 22:24:00,57.2,44.2,30.03,SE,135,0.0,0.0,62,0.00,,,0.01,WUHU21636XXSP,2013-06-07 02:24:00,
2013-06-06 22:29:00,57.0,44.1,30.03,SE,135,0.0,0.0,64,0.00,,,0.01,WUHU21636XXSP,2013-06-07 02:29:00,
2013-06-06 22:34:00,56.8,45.5,30.03,SE,135,0.0,0.0,66,0.00,,,0.01,WUHU21636XXSP,2013-06-07 02:34:00,
2013-06-06 22:39:00,56.5,44.8,30.03,SE,135,0.0,0.0,65,0.00,,,0.01,WUHU21636XXSP,2013-06-07 02:39:00,
2013-06-06 22:44:00,56.1,44.8,30.03,SE,135,0.0,0.0,66,0.00,,,0.01,WUHU21636XXSP,2013-06-07 02:44:00,
2013-06-06 22:49:00,56.1,44.8,30.03,SE,135,0.0,0.0,66,0.00,,,0.01,WUHU21636XXSP,2013-06-07 02:49:00,
2013-06-06 22:54:00,55.9,45.0,30.03,SE,135,0.0,0.0,67,0.00,,,0.01,WUHU21636XXSP,2013-06-07 02:54:00,
2013-06-06 22:59:00,55.8,45.3,30.03,SE,135,0.0,0.0,68,0.00,,,0.01,WUHU21636XXSP,2013-06-07 02:59:00,
2013-06-06 23:04:00,55.6,45.1,30.03,SE,135,0.0,0.0,69,0.00,,,0.01,WUHU21636XXSP,2013-06-07 03:04:00,
2013-06-06 23:09:00,55.2,45.1,30.03,SE,135,0.0,0.0,69,0.00,,,0.01,WUHU21636XXSP,2013-06-07 03:09:00,
2013-06-06 23:14:00,55.0,45.0,30.03,SE,135,0.0,0.0,69,0.00,,,0.01,WUHU21636XXSP,2013-06-07 03:14:00,
2013-06-06 23:19:00,54.7,44.2,30.03,SE,135,0.0,0.0,68,0.00,,,0.01,WUHU21636XXSP,2013-06-07 03:19:00,
2013-06-06 23:24:00,54.3,43.5,30.03,SE,135,0.0,0.0,67,0.00,,,0.01,WUHU21636XXSP,2013-06-07 03:24:00,
2013-06-06 23:29:00,54.1,43.7,30.03,SE,135,0.0,0.0,68,0.00,,,0.01,WUHU21636XXSP,2013-06-07 03:29:00,
2013-06-06 23:34:00,53.8,43.7,30.04,SE,135,0.0,0.0,69,0.00,,,0.01,WUHU21636XXSP,2013-06-07 03:34:00,
2013-06-06 23:39:00,53.8,43.7,30.04,SE,135,0.0,0.0,72,0.00,,,0.01,WUHU21636XXSP,2013-06-07 03:39:00,
2013-06-06 23:44:00,53.6,44.8,30.04,SE,135,0.0,0.0,71,0.00,,,0.01,WUHU21636XXSP,2013-06-07 03:44:00,
2013-06-06 23:49:00,53.4,44.2,30.04,SE,135,0.0,0.0,71,0.00,,,0.01,WUHU21636XXSP,2013-06-07 03:49:00,
2013-06-06 23:54:00,53.2,44.1,30.04,SE,135,0.0,13.3,71,0.00,,,0.01,WUHU21636XXSP,2013-06-07 03:54:00,
2013-06-06 23:59:00,53.2,44.1,30.04,SE,135,0.0,13.3,72,0.00,,,0.01,WUHU21636XXSP,2013-06-07 03:59:00,